sensor_id;sensor_type;location;lat;lon;timestamp;P1;durP1;ratioP1;P2;durP2;ratioP2
25511;SDS011;13414;44.534;18.700;2023-04-21T00:00:44;65.88;;;42.20;;
25511;SDS011;13414;44.534;18.700;2023-04-21T00:03:12;61.72;;;41.47;;
25511;SDS011;13414;44.534;18.700;2023-04-21T00:05:40;61.35;;;38.42;;
25511;SDS011;13414;44.534;18.700;2023-04-21T00:08:07;49.40;;;34.38;;
25511;SDS011;13414;44.534;18.700;2023-04-21T00:10:35;49.78;;;35.25;;
25511;SDS011;13414;44.534;18.700;2023-04-21T00:13:02;54.83;;;36.55;;
25511;SDS011;13414;44.534;18.700;2023-04-21T00:15:30;50.80;;;35.30;;
25511;SDS011;13414;44.534;18.700;2023-04-21T00:17:59;54.35;;;35.40;;
25511;SDS011;13414;44.534;18.700;2023-04-21T00:20:26;46.78;;;33.40;;
25511;SDS011;13414;44.534;18.700;2023-04-21T00:22:53;41.78;;;30.52;;
25511;SDS011;13414;44.534;18.700;2023-04-21T00:25:21;41.03;;;27.65;;
25511;SDS011;13414;44.534;18.700;2023-04-21T00:27:49;39.47;;;28.30;;
25511;SDS011;13414;44.534;18.700;2023-04-21T00:30:17;41.03;;;27.42;;
25511;SDS011;13414;44.534;18.700;2023-04-21T00:32:44;43.42;;;29.88;;
25511;SDS011;13414;44.534;18.700;2023-04-21T00:35:13;45.67;;;30.35;;
25511;SDS011;13414;44.534;18.700;2023-04-21T00:37:41;40.15;;;27.92;;
25511;SDS011;13414;44.534;18.700;2023-04-21T00:40:10;43.72;;;28.63;;
25511;SDS011;13414;44.534;18.700;2023-04-21T00:42:39;40.47;;;29.02;;
25511;SDS011;13414;44.534;18.700;2023-04-21T00:45:06;42.78;;;30.38;;
25511;SDS011;13414;44.534;18.700;2023-04-21T00:47:34;48.50;;;32.10;;
25511;SDS011;13414;44.534;18.700;2023-04-21T00:50:02;45.97;;;31.05;;
25511;SDS011;13414;44.534;18.700;2023-04-21T00:52:31;46.80;;;32.33;;
25511;SDS011;13414;44.534;18.700;2023-04-21T00:55:00;50.13;;;32.70;;
25511;SDS011;13414;44.534;18.700;2023-04-21T00:57:30;56.25;;;36.90;;
25511;SDS011;13414;44.534;18.700;2023-04-21T00:59:58;81.25;;;50.58;;
25511;SDS011;13414;44.534;18.700;2023-04-21T01:02:25;88.32;;;53.67;;
25511;SDS011;13414;44.534;18.700;2023-04-21T01:04:53;84.75;;;52.03;;
25511;SDS011;13414;44.534;18.700;2023-04-21T01:07:23;70.95;;;43.92;;
25511;SDS011;13414;44.534;18.700;2023-04-21T01:09:52;71.05;;;43.40;;
25511;SDS011;13414;44.534;18.700;2023-04-21T01:12:21;54.38;;;34.75;;
25511;SDS011;13414;44.534;18.700;2023-04-21T01:14:49;56.00;;;38.17;;
25511;SDS011;13414;44.534;18.700;2023-04-21T01:17:17;61.05;;;41.53;;
25511;SDS011;13414;44.534;18.700;2023-04-21T01:19:46;56.25;;;38.58;;
25511;SDS011;13414;44.534;18.700;2023-04-21T01:22:15;55.95;;;38.53;;
25511;SDS011;13414;44.534;18.700;2023-04-21T01:24:44;50.65;;;36.13;;
25511;SDS011;13414;44.534;18.700;2023-04-21T01:27:13;54.72;;;38.58;;
25511;SDS011;13414;44.534;18.700;2023-04-21T01:29:43;52.97;;;37.75;;
25511;SDS011;13414;44.534;18.700;2023-04-21T01:32:12;53.03;;;39.58;;
25511;SDS011;13414;44.534;18.700;2023-04-21T01:34:41;50.10;;;38.25;;
25511;SDS011;13414;44.534;18.700;2023-04-21T01:37:09;49.22;;;36.55;;
25511;SDS011;13414;44.534;18.700;2023-04-21T01:39:39;46.20;;;35.75;;
25511;SDS011;13414;44.534;18.700;2023-04-21T01:42:08;47.42;;;33.65;;
25511;SDS011;13414;44.534;18.700;2023-04-21T01:44:36;41.60;;;31.13;;
25511;SDS011;13414;44.534;18.700;2023-04-21T01:47:04;46.78;;;32.17;;
25511;SDS011;13414;44.534;18.700;2023-04-21T01:49:32;44.72;;;31.05;;
25511;SDS011;13414;44.534;18.700;2023-04-21T01:51:59;42.08;;;30.45;;
25511;SDS011;13414;44.534;18.700;2023-04-21T01:54:27;41.03;;;30.75;;
25511;SDS011;13414;44.534;18.700;2023-04-21T01:56:56;48.45;;;30.25;;
25511;SDS011;13414;44.534;18.700;2023-04-21T01:59:23;43.08;;;28.92;;
25511;SDS011;13414;44.534;18.700;2023-04-21T02:01:51;46.97;;;30.02;;
25511;SDS011;13414;44.534;18.700;2023-04-21T02:04:19;47.88;;;31.45;;
25511;SDS011;13414;44.534;18.700;2023-04-21T02:06:46;48.28;;;32.83;;
25511;SDS011;13414;44.534;18.700;2023-04-21T02:09:14;51.28;;;33.05;;
25511;SDS011;13414;44.534;18.700;2023-04-21T02:11:42;67.63;;;39.25;;
25511;SDS011;13414;44.534;18.700;2023-04-21T02:14:10;63.53;;;40.95;;
25511;SDS011;13414;44.534;18.700;2023-04-21T02:16:39;77.25;;;47.00;;
25511;SDS011;13414;44.534;18.700;2023-04-21T02:19:07;65.00;;;40.30;;
25511;SDS011;13414;44.534;18.700;2023-04-21T02:21:34;67.28;;;42.28;;
25511;SDS011;13414;44.534;18.700;2023-04-21T02:24:02;50.97;;;35.78;;
25511;SDS011;13414;44.534;18.700;2023-04-21T02:26:30;59.40;;;37.50;;
25511;SDS011;13414;44.534;18.700;2023-04-21T02:28:59;54.00;;;37.65;;
25511;SDS011;13414;44.534;18.700;2023-04-21T02:31:28;51.63;;;35.83;;
25511;SDS011;13414;44.534;18.700;2023-04-21T02:33:56;61.65;;;39.72;;
25511;SDS011;13414;44.534;18.700;2023-04-21T02:36:23;53.60;;;33.83;;
25511;SDS011;13414;44.534;18.700;2023-04-21T02:38:56;44.55;;;30.05;;
25511;SDS011;13414;44.534;18.700;2023-04-21T02:41:23;48.90;;;32.03;;
25511;SDS011;13414;44.534;18.700;2023-04-21T02:43:51;46.80;;;32.45;;
25511;SDS011;13414;44.534;18.700;2023-04-21T02:46:20;40.78;;;27.67;;
25511;SDS011;13414;44.534;18.700;2023-04-21T02:48:49;45.83;;;30.63;;
25511;SDS011;13414;44.534;18.700;2023-04-21T02:51:17;47.88;;;33.28;;
25511;SDS011;13414;44.534;18.700;2023-04-21T02:53:45;47.80;;;32.28;;
25511;SDS011;13414;44.534;18.700;2023-04-21T02:56:12;56.13;;;33.63;;
25511;SDS011;13414;44.534;18.700;2023-04-21T02:58:41;46.55;;;31.48;;
25511;SDS011;13414;44.534;18.700;2023-04-21T03:01:08;48.35;;;31.88;;
25511;SDS011;13414;44.534;18.700;2023-04-21T03:03:36;54.00;;;30.23;;
25511;SDS011;13414;44.534;18.700;2023-04-21T03:06:05;51.97;;;32.35;;
25511;SDS011;13414;44.534;18.700;2023-04-21T03:08:33;47.05;;;31.50;;
25511;SDS011;13414;44.534;18.700;2023-04-21T03:11:01;48.08;;;30.17;;
25511;SDS011;13414;44.534;18.700;2023-04-21T03:13:28;47.72;;;30.95;;
25511;SDS011;13414;44.534;18.700;2023-04-21T03:15:56;48.92;;;32.78;;
25511;SDS011;13414;44.534;18.700;2023-04-21T03:18:23;54.28;;;35.88;;
25511;SDS011;13414;44.534;18.700;2023-04-21T03:20:52;58.20;;;37.65;;
25511;SDS011;13414;44.534;18.700;2023-04-21T03:23:27;67.13;;;45.30;;
25511;SDS011;13414;44.534;18.700;2023-04-21T03:25:55;68.05;;;46.13;;
25511;SDS011;13414;44.534;18.700;2023-04-21T03:28:23;68.88;;;45.22;;
25511;SDS011;13414;44.534;18.700;2023-04-21T03:30:50;77.78;;;54.17;;
25511;SDS011;13414;44.534;18.700;2023-04-21T03:33:18;73.25;;;50.92;;
25511;SDS011;13414;44.534;18.700;2023-04-21T03:35:45;68.10;;;46.38;;
25511;SDS011;13414;44.534;18.700;2023-04-21T03:38:13;43.13;;;33.50;;
25511;SDS011;13414;44.534;18.700;2023-04-21T03:40:42;40.47;;;31.20;;
25511;SDS011;13414;44.534;18.700;2023-04-21T03:43:10;39.63;;;29.05;;
25511;SDS011;13414;44.534;18.700;2023-04-21T03:45:38;41.47;;;30.08;;
25511;SDS011;13414;44.534;18.700;2023-04-21T03:48:06;40.42;;;29.33;;
25511;SDS011;13414;44.534;18.700;2023-04-21T03:50:34;43.97;;;28.60;;
25511;SDS011;13414;44.534;18.700;2023-04-21T03:53:01;43.28;;;27.15;;
25511;SDS011;13414;44.534;18.700;2023-04-21T03:55:29;47.55;;;28.05;;
25511;SDS011;13414;44.534;18.700;2023-04-21T03:57:58;46.90;;;29.45;;
25511;SDS011;13414;44.534;18.700;2023-04-21T04:00:25;47.63;;;31.67;;
25511;SDS011;13414;44.534;18.700;2023-04-21T04:02:53;49.13;;;33.42;;
25511;SDS011;13414;44.534;18.700;2023-04-21T04:05:20;51.03;;;32.90;;
25511;SDS011;13414;44.534;18.700;2023-04-21T04:07:48;54.72;;;35.22;;
25511;SDS011;13414;44.534;18.700;2023-04-21T04:10:15;55.40;;;34.10;;
25511;SDS011;13414;44.534;18.700;2023-04-21T04:12:43;46.95;;;32.63;;
25511;SDS011;13414;44.534;18.700;2023-04-21T04:15:12;65.38;;;34.28;;
25511;SDS011;13414;44.534;18.700;2023-04-21T04:17:39;58.83;;;34.38;;
25511;SDS011;13414;44.534;18.700;2023-04-21T04:20:07;62.72;;;33.60;;
25511;SDS011;13414;44.534;18.700;2023-04-21T04:22:35;57.50;;;35.15;;
25511;SDS011;13414;44.534;18.700;2023-04-21T04:25:02;52.67;;;33.10;;
25511;SDS011;13414;44.534;18.700;2023-04-21T04:27:30;49.67;;;33.70;;
25511;SDS011;13414;44.534;18.700;2023-04-21T04:29:58;52.80;;;35.67;;
25511;SDS011;13414;44.534;18.700;2023-04-21T04:32:27;66.88;;;39.75;;
25511;SDS011;13414;44.534;18.700;2023-04-21T04:34:55;49.72;;;32.72;;
25511;SDS011;13414;44.534;18.700;2023-04-21T04:37:23;48.35;;;32.38;;
25511;SDS011;13414;44.534;18.700;2023-04-21T04:39:51;54.35;;;32.55;;
25511;SDS011;13414;44.534;18.700;2023-04-21T04:42:19;78.10;;;44.65;;
25511;SDS011;13414;44.534;18.700;2023-04-21T04:44:47;68.00;;;39.22;;
25511;SDS011;13414;44.534;18.700;2023-04-21T04:47:15;58.78;;;35.13;;
25511;SDS011;13414;44.534;18.700;2023-04-21T04:49:43;49.42;;;32.00;;
25511;SDS011;13414;44.534;18.700;2023-04-21T04:52:11;42.65;;;28.10;;
25511;SDS011;13414;44.534;18.700;2023-04-21T04:54:40;54.85;;;34.42;;
25511;SDS011;13414;44.534;18.700;2023-04-21T04:57:07;55.45;;;33.05;;
25511;SDS011;13414;44.534;18.700;2023-04-21T04:59:35;59.88;;;34.83;;
25511;SDS011;13414;44.534;18.700;2023-04-21T05:02:02;53.97;;;34.42;;
25511;SDS011;13414;44.534;18.700;2023-04-21T05:04:30;59.28;;;35.70;;
25511;SDS011;13414;44.534;18.700;2023-04-21T05:07:00;61.78;;;36.42;;
25511;SDS011;13414;44.534;18.700;2023-04-21T05:09:28;54.92;;;36.13;;
25511;SDS011;13414;44.534;18.700;2023-04-21T05:11:55;52.72;;;33.80;;
25511;SDS011;13414;44.534;18.700;2023-04-21T05:14:23;54.42;;;33.72;;
25511;SDS011;13414;44.534;18.700;2023-04-21T05:16:50;52.33;;;34.33;;
25511;SDS011;13414;44.534;18.700;2023-04-21T05:19:18;55.03;;;34.83;;
25511;SDS011;13414;44.534;18.700;2023-04-21T05:21:45;53.95;;;32.72;;
25511;SDS011;13414;44.534;18.700;2023-04-21T05:24:14;51.10;;;33.63;;
25511;SDS011;13414;44.534;18.700;2023-04-21T05:26:47;49.22;;;32.78;;
25511;SDS011;13414;44.534;18.700;2023-04-21T05:29:17;49.55;;;30.40;;
25511;SDS011;13414;44.534;18.700;2023-04-21T05:31:45;37.42;;;27.52;;
25511;SDS011;13414;44.534;18.700;2023-04-21T05:34:13;37.80;;;27.90;;
25511;SDS011;13414;44.534;18.700;2023-04-21T05:36:40;45.03;;;31.77;;
25511;SDS011;13414;44.534;18.700;2023-04-21T05:39:12;43.78;;;31.25;;
25511;SDS011;13414;44.534;18.700;2023-04-21T05:41:42;31.33;;;23.52;;
25511;SDS011;13414;44.534;18.700;2023-04-21T05:44:10;38.10;;;28.65;;
25511;SDS011;13414;44.534;18.700;2023-04-21T05:46:38;41.10;;;30.10;;
25511;SDS011;13414;44.534;18.700;2023-04-21T05:49:05;36.45;;;29.73;;
25511;SDS011;13414;44.534;18.700;2023-04-21T05:51:33;38.70;;;29.10;;
25511;SDS011;13414;44.534;18.700;2023-04-21T05:54:00;35.20;;;28.52;;
25511;SDS011;13414;44.534;18.700;2023-04-21T05:56:28;37.53;;;29.60;;
25511;SDS011;13414;44.534;18.700;2023-04-21T05:58:57;38.45;;;28.50;;
25511;SDS011;13414;44.534;18.700;2023-04-21T06:01:25;41.40;;;29.50;;
25511;SDS011;13414;44.534;18.700;2023-04-21T06:03:52;42.47;;;30.83;;
25511;SDS011;13414;44.534;18.700;2023-04-21T06:06:19;77.10;;;60.80;;
25511;SDS011;13414;44.534;18.700;2023-04-21T06:08:47;39.28;;;31.15;;
25511;SDS011;13414;44.534;18.700;2023-04-21T06:11:14;35.67;;;29.10;;
25511;SDS011;13414;44.534;18.700;2023-04-21T06:13:42;38.67;;;28.67;;
25511;SDS011;13414;44.534;18.700;2023-04-21T06:16:11;36.20;;;29.15;;
25511;SDS011;13414;44.534;18.700;2023-04-21T06:18:38;32.60;;;27.33;;
25511;SDS011;13414;44.534;18.700;2023-04-21T06:21:06;33.53;;;26.80;;
25511;SDS011;13414;44.534;18.700;2023-04-21T06:23:33;30.98;;;25.73;;
25511;SDS011;13414;44.534;18.700;2023-04-21T06:26:01;29.88;;;23.98;;
25511;SDS011;13414;44.534;18.700;2023-04-21T06:28:31;29.67;;;23.55;;
25511;SDS011;13414;44.534;18.700;2023-04-21T06:30:59;57.95;;;43.63;;
25511;SDS011;13414;44.534;18.700;2023-04-21T06:33:28;63.92;;;53.35;;
25511;SDS011;13414;44.534;18.700;2023-04-21T06:35:56;28.67;;;23.67;;
25511;SDS011;13414;44.534;18.700;2023-04-21T06:38:23;28.80;;;23.05;;
25511;SDS011;13414;44.534;18.700;2023-04-21T06:40:51;28.25;;;22.10;;
25511;SDS011;13414;44.534;18.700;2023-04-21T06:43:19;32.95;;;23.98;;
25511;SDS011;13414;44.534;18.700;2023-04-21T06:45:47;31.92;;;24.50;;
25511;SDS011;13414;44.534;18.700;2023-04-21T06:48:14;30.48;;;25.23;;
25511;SDS011;13414;44.534;18.700;2023-04-21T06:50:43;32.80;;;25.33;;
25511;SDS011;13414;44.534;18.700;2023-04-21T06:53:10;32.97;;;25.85;;
25511;SDS011;13414;44.534;18.700;2023-04-21T06:55:38;34.47;;;25.50;;
25511;SDS011;13414;44.534;18.700;2023-04-21T06:58:05;33.85;;;25.42;;
25511;SDS011;13414;44.534;18.700;2023-04-21T07:00:33;33.60;;;26.73;;
25511;SDS011;13414;44.534;18.700;2023-04-21T07:03:00;38.70;;;25.67;;
25511;SDS011;13414;44.534;18.700;2023-04-21T07:05:31;46.33;;;27.88;;
25511;SDS011;13414;44.534;18.700;2023-04-21T07:08:00;39.40;;;26.27;;
25511;SDS011;13414;44.534;18.700;2023-04-21T07:10:27;34.33;;;26.15;;
25511;SDS011;13414;44.534;18.700;2023-04-21T07:12:57;36.28;;;26.75;;
25511;SDS011;13414;44.534;18.700;2023-04-21T07:15:26;38.70;;;27.88;;
25511;SDS011;13414;44.534;18.700;2023-04-21T07:17:54;52.45;;;28.85;;
25511;SDS011;13414;44.534;18.700;2023-04-21T07:20:23;37.70;;;25.95;;
25511;SDS011;13414;44.534;18.700;2023-04-21T07:22:50;38.20;;;26.10;;
25511;SDS011;13414;44.534;18.700;2023-04-21T07:25:19;38.60;;;26.08;;
25511;SDS011;13414;44.534;18.700;2023-04-21T07:27:47;38.08;;;25.23;;
25511;SDS011;13414;44.534;18.700;2023-04-21T07:30:14;32.92;;;21.95;;
25511;SDS011;13414;44.534;18.700;2023-04-21T07:32:42;30.75;;;21.73;;
25511;SDS011;13414;44.534;18.700;2023-04-21T07:35:10;34.92;;;22.55;;
25511;SDS011;13414;44.534;18.700;2023-04-21T07:37:38;30.90;;;20.65;;
25511;SDS011;13414;44.534;18.700;2023-04-21T07:40:06;31.80;;;22.73;;
25511;SDS011;13414;44.534;18.700;2023-04-21T07:42:36;29.98;;;20.95;;
25511;SDS011;13414;44.534;18.700;2023-04-21T07:45:04;29.58;;;21.08;;
25511;SDS011;13414;44.534;18.700;2023-04-21T07:47:32;30.58;;;22.33;;
25511;SDS011;13414;44.534;18.700;2023-04-21T07:50:00;34.33;;;23.60;;
25511;SDS011;13414;44.534;18.700;2023-04-21T07:52:27;30.08;;;22.33;;
25511;SDS011;13414;44.534;18.700;2023-04-21T07:54:55;30.02;;;22.38;;
25511;SDS011;13414;44.534;18.700;2023-04-21T07:57:22;32.88;;;22.92;;
25511;SDS011;13414;44.534;18.700;2023-04-21T07:59:51;34.92;;;23.35;;
25511;SDS011;13414;44.534;18.700;2023-04-21T08:02:18;34.80;;;24.08;;
25511;SDS011;13414;44.534;18.700;2023-04-21T08:04:46;35.97;;;22.95;;
25511;SDS011;13414;44.534;18.700;2023-04-21T08:07:13;29.85;;;22.40;;
25511;SDS011;13414;44.534;18.700;2023-04-21T08:09:41;31.75;;;21.85;;
25511;SDS011;13414;44.534;18.700;2023-04-21T08:12:08;27.98;;;21.13;;
25511;SDS011;13414;44.534;18.700;2023-04-21T08:14:36;30.58;;;22.30;;
25511;SDS011;13414;44.534;18.700;2023-04-21T08:17:04;29.33;;;20.13;;
25511;SDS011;13414;44.534;18.700;2023-04-21T08:19:32;27.40;;;20.85;;
25511;SDS011;13414;44.534;18.700;2023-04-21T08:21:59;29.63;;;20.20;;
25511;SDS011;13414;44.534;18.700;2023-04-21T08:24:27;23.42;;;16.92;;
25511;SDS011;13414;44.534;18.700;2023-04-21T08:26:54;20.45;;;15.38;;
25511;SDS011;13414;44.534;18.700;2023-04-21T08:29:22;22.40;;;16.73;;
25511;SDS011;13414;44.534;18.700;2023-04-21T08:31:49;19.88;;;15.13;;
25511;SDS011;13414;44.534;18.700;2023-04-21T08:34:18;21.38;;;14.93;;
25511;SDS011;13414;44.534;18.700;2023-04-21T08:36:45;19.50;;;13.85;;
25511;SDS011;13414;44.534;18.700;2023-04-21T08:39:13;19.20;;;13.43;;
25511;SDS011;13414;44.534;18.700;2023-04-21T08:41:41;21.23;;;13.93;;
25511;SDS011;13414;44.534;18.700;2023-04-21T08:44:08;18.08;;;14.63;;
25511;SDS011;13414;44.534;18.700;2023-04-21T08:46:36;16.73;;;11.90;;
25511;SDS011;13414;44.534;18.700;2023-04-21T08:49:05;14.90;;;11.45;;
25511;SDS011;13414;44.534;18.700;2023-04-21T08:51:36;21.95;;;10.50;;
25511;SDS011;13414;44.534;18.700;2023-04-21T08:54:04;18.25;;;11.75;;
25511;SDS011;13414;44.534;18.700;2023-04-21T08:56:31;24.33;;;15.00;;
25511;SDS011;13414;44.534;18.700;2023-04-21T08:59:00;20.30;;;12.70;;
25511;SDS011;13414;44.534;18.700;2023-04-21T09:01:27;20.20;;;12.68;;
25511;SDS011;13414;44.534;18.700;2023-04-21T09:04:02;17.80;;;12.40;;
25511;SDS011;13414;44.534;18.700;2023-04-21T09:06:43;15.52;;;11.75;;
25511;SDS011;13414;44.534;18.700;2023-04-21T09:09:10;16.92;;;12.35;;
25511;SDS011;13414;44.534;18.700;2023-04-21T09:11:38;19.80;;;12.45;;
25511;SDS011;13414;44.534;18.700;2023-04-21T09:14:05;17.48;;;12.30;;
25511;SDS011;13414;44.534;18.700;2023-04-21T09:16:34;16.58;;;11.30;;
25511;SDS011;13414;44.534;18.700;2023-04-21T09:19:02;16.05;;;11.23;;
25511;SDS011;13414;44.534;18.700;2023-04-21T09:21:39;16.27;;;11.85;;
25511;SDS011;13414;44.534;18.700;2023-04-21T09:24:11;18.00;;;11.60;;
25511;SDS011;13414;44.534;18.700;2023-04-21T09:26:39;22.05;;;12.50;;
25511;SDS011;13414;44.534;18.700;2023-04-21T09:29:08;17.45;;;11.25;;
25511;SDS011;13414;44.534;18.700;2023-04-21T09:31:36;17.73;;;11.98;;
25511;SDS011;13414;44.534;18.700;2023-04-21T09:34:10;20.65;;;12.93;;
25511;SDS011;13414;44.534;18.700;2023-04-21T09:36:45;22.73;;;12.80;;
25511;SDS011;13414;44.534;18.700;2023-04-21T09:39:13;21.52;;;12.52;;
25511;SDS011;13414;44.534;18.700;2023-04-21T09:41:42;21.55;;;13.88;;
25511;SDS011;13414;44.534;18.700;2023-04-21T09:44:10;22.25;;;15.48;;
25511;SDS011;13414;44.534;18.700;2023-04-21T09:46:37;26.35;;;16.30;;
25511;SDS011;13414;44.534;18.700;2023-04-21T09:49:08;25.02;;;16.48;;
25511;SDS011;13414;44.534;18.700;2023-04-21T09:51:39;26.85;;;17.13;;
25511;SDS011;13414;44.534;18.700;2023-04-21T09:54:09;26.67;;;16.23;;
25511;SDS011;13414;44.534;18.700;2023-04-21T09:56:41;27.50;;;16.58;;
25511;SDS011;13414;44.534;18.700;2023-04-21T09:59:12;24.05;;;16.70;;
25511;SDS011;13414;44.534;18.700;2023-04-21T10:01:45;27.85;;;17.52;;
25511;SDS011;13414;44.534;18.700;2023-04-21T10:04:15;29.10;;;17.20;;
25511;SDS011;13414;44.534;18.700;2023-04-21T10:06:44;27.98;;;21.08;;
25511;SDS011;13414;44.534;18.700;2023-04-21T10:09:14;31.63;;;21.92;;
25511;SDS011;13414;44.534;18.700;2023-04-21T10:11:44;31.23;;;21.63;;
25511;SDS011;13414;44.534;18.700;2023-04-21T10:14:11;31.90;;;22.02;;
25511;SDS011;13414;44.534;18.700;2023-04-21T10:16:39;27.60;;;19.58;;
25511;SDS011;13414;44.534;18.700;2023-04-21T10:19:21;30.73;;;19.60;;
25511;SDS011;13414;44.534;18.700;2023-04-21T10:21:50;25.02;;;16.13;;
25511;SDS011;13414;44.534;18.700;2023-04-21T10:24:19;28.50;;;15.77;;
25511;SDS011;13414;44.534;18.700;2023-04-21T10:26:47;25.17;;;16.17;;
25511;SDS011;13414;44.534;18.700;2023-04-21T10:29:21;25.33;;;17.58;;
25511;SDS011;13414;44.534;18.700;2023-04-21T10:31:55;22.98;;;15.85;;
25511;SDS011;13414;44.534;18.700;2023-04-21T10:34:29;23.52;;;13.40;;
25511;SDS011;13414;44.534;18.700;2023-04-21T10:37:11;15.30;;;9.80;;
25511;SDS011;13414;44.534;18.700;2023-04-21T10:39:50;18.25;;;10.15;;
25511;SDS011;13414;44.534;18.700;2023-04-21T10:42:19;21.60;;;11.85;;
25511;SDS011;13414;44.534;18.700;2023-04-21T10:44:52;14.93;;;10.05;;
25511;SDS011;13414;44.534;18.700;2023-04-21T10:47:28;20.15;;;13.35;;
25511;SDS011;13414;44.534;18.700;2023-04-21T10:50:09;13.82;;;8.93;;
25511;SDS011;13414;44.534;18.700;2023-04-21T10:52:44;16.45;;;9.68;;
25511;SDS011;13414;44.534;18.700;2023-04-21T10:55:18;14.27;;;7.68;;
25511;SDS011;13414;44.534;18.700;2023-04-21T10:57:46;14.02;;;7.85;;
25511;SDS011;13414;44.534;18.700;2023-04-21T11:00:15;15.73;;;9.57;;
25511;SDS011;13414;44.534;18.700;2023-04-21T11:02:51;22.73;;;10.65;;
25511;SDS011;13414;44.534;18.700;2023-04-21T11:05:29;16.50;;;7.20;;
25511;SDS011;13414;44.534;18.700;2023-04-21T11:08:01;18.63;;;7.68;;
25511;SDS011;13414;44.534;18.700;2023-04-21T11:10:45;12.18;;;7.30;;
25511;SDS011;13414;44.534;18.700;2023-04-21T11:13:15;8.70;;;4.35;;
25511;SDS011;13414;44.534;18.700;2023-04-21T11:15:54;12.63;;;5.05;;
25511;SDS011;13414;44.534;18.700;2023-04-21T11:18:33;14.45;;;5.90;;
25511;SDS011;13414;44.534;18.700;2023-04-21T11:21:09;9.50;;;4.22;;
25511;SDS011;13414;44.534;18.700;2023-04-21T11:23:40;10.00;;;4.55;;
25511;SDS011;13414;44.534;18.700;2023-04-21T11:26:09;11.35;;;4.93;;
25511;SDS011;13414;44.534;18.700;2023-04-21T11:28:36;11.40;;;4.85;;
25511;SDS011;13414;44.534;18.700;2023-04-21T11:31:06;12.57;;;5.93;;
25511;SDS011;13414;44.534;18.700;2023-04-21T11:33:35;13.15;;;6.90;;
25511;SDS011;13414;44.534;18.700;2023-04-21T11:36:04;12.23;;;8.60;;
25511;SDS011;13414;44.534;18.700;2023-04-21T11:38:38;14.10;;;8.35;;
25511;SDS011;13414;44.534;18.700;2023-04-21T11:41:06;12.73;;;8.45;;
25511;SDS011;13414;44.534;18.700;2023-04-21T11:43:36;18.30;;;10.02;;
25511;SDS011;13414;44.534;18.700;2023-04-21T11:46:10;16.75;;;9.10;;
25511;SDS011;13414;44.534;18.700;2023-04-21T11:48:39;17.70;;;9.53;;
25511;SDS011;13414;44.534;18.700;2023-04-21T11:51:12;19.48;;;8.30;;
25511;SDS011;13414;44.534;18.700;2023-04-21T11:53:40;13.35;;;8.75;;
25511;SDS011;13414;44.534;18.700;2023-04-21T11:56:09;14.68;;;7.95;;
25511;SDS011;13414;44.534;18.700;2023-04-21T11:58:37;14.63;;;7.78;;
25511;SDS011;13414;44.534;18.700;2023-04-21T12:01:08;13.65;;;8.05;;
25511;SDS011;13414;44.534;18.700;2023-04-21T12:03:36;18.55;;;8.10;;
25511;SDS011;13414;44.534;18.700;2023-04-21T12:06:03;14.02;;;7.20;;
25511;SDS011;13414;44.534;18.700;2023-04-21T12:08:31;12.40;;;7.30;;
25511;SDS011;13414;44.534;18.700;2023-04-21T12:11:01;16.30;;;7.30;;
25511;SDS011;13414;44.534;18.700;2023-04-21T12:13:30;13.48;;;6.50;;
25511;SDS011;13414;44.534;18.700;2023-04-21T12:16:01;20.23;;;7.80;;
25511;SDS011;13414;44.534;18.700;2023-04-21T12:18:30;17.77;;;9.35;;
25511;SDS011;13414;44.534;18.700;2023-04-21T12:21:00;14.48;;;7.80;;
25511;SDS011;13414;44.534;18.700;2023-04-21T12:23:27;15.60;;;7.57;;
25511;SDS011;13414;44.534;18.700;2023-04-21T12:25:55;14.15;;;6.75;;
25511;SDS011;13414;44.534;18.700;2023-04-21T12:28:24;11.65;;;7.18;;
25511;SDS011;13414;44.534;18.700;2023-04-21T12:30:53;13.27;;;7.57;;
25511;SDS011;13414;44.534;18.700;2023-04-21T12:33:20;14.43;;;7.95;;
25511;SDS011;13414;44.534;18.700;2023-04-21T12:35:47;16.08;;;7.90;;
25511;SDS011;13414;44.534;18.700;2023-04-21T12:38:15;13.38;;;7.45;;
25511;SDS011;13414;44.534;18.700;2023-04-21T12:40:43;16.20;;;7.45;;
25511;SDS011;13414;44.534;18.700;2023-04-21T12:43:10;10.50;;;6.43;;
25511;SDS011;13414;44.534;18.700;2023-04-21T12:45:38;13.88;;;5.75;;
25511;SDS011;13414;44.534;18.700;2023-04-21T12:48:07;12.68;;;6.05;;
25511;SDS011;13414;44.534;18.700;2023-04-21T12:50:34;11.32;;;4.97;;
25511;SDS011;13414;44.534;18.700;2023-04-21T12:53:02;9.02;;;4.80;;
25511;SDS011;13414;44.534;18.700;2023-04-21T12:55:29;19.52;;;7.88;;
25511;SDS011;13414;44.534;18.700;2023-04-21T12:57:57;18.33;;;5.45;;
25511;SDS011;13414;44.534;18.700;2023-04-21T13:00:24;10.15;;;5.13;;
25511;SDS011;13414;44.534;18.700;2023-04-21T13:02:52;9.43;;;3.97;;
25511;SDS011;13414;44.534;18.700;2023-04-21T13:05:21;9.60;;;4.05;;
25511;SDS011;13414;44.534;18.700;2023-04-21T13:07:49;8.48;;;3.90;;
25511;SDS011;13414;44.534;18.700;2023-04-21T13:10:17;10.23;;;3.63;;
25511;SDS011;13414;44.534;18.700;2023-04-21T13:12:45;10.45;;;4.40;;
25511;SDS011;13414;44.534;18.700;2023-04-21T13:15:12;9.25;;;4.00;;
25511;SDS011;13414;44.534;18.700;2023-04-21T13:17:40;9.25;;;4.15;;
25511;SDS011;13414;44.534;18.700;2023-04-21T13:20:07;13.45;;;4.00;;
25511;SDS011;13414;44.534;18.700;2023-04-21T13:22:37;8.52;;;3.67;;
25511;SDS011;13414;44.534;18.700;2023-04-21T13:25:05;12.75;;;4.35;;
25511;SDS011;13414;44.534;18.700;2023-04-21T13:27:33;7.18;;;3.38;;
25511;SDS011;13414;44.534;18.700;2023-04-21T13:30:05;15.55;;;4.55;;
25511;SDS011;13414;44.534;18.700;2023-04-21T13:32:34;10.82;;;4.00;;
25511;SDS011;13414;44.534;18.700;2023-04-21T13:35:01;10.85;;;3.40;;
25511;SDS011;13414;44.534;18.700;2023-04-21T13:37:33;9.63;;;3.40;;
25511;SDS011;13414;44.534;18.700;2023-04-21T13:40:02;9.32;;;3.83;;
25511;SDS011;13414;44.534;18.700;2023-04-21T13:42:31;9.00;;;3.88;;
25511;SDS011;13414;44.534;18.700;2023-04-21T13:44:59;8.70;;;4.00;;
25511;SDS011;13414;44.534;18.700;2023-04-21T13:47:27;14.65;;;4.47;;
25511;SDS011;13414;44.534;18.700;2023-04-21T13:49:55;12.02;;;3.88;;
25511;SDS011;13414;44.534;18.700;2023-04-21T13:52:23;8.68;;;3.60;;
25511;SDS011;13414;44.534;18.700;2023-04-21T13:54:51;8.18;;;3.55;;
25511;SDS011;13414;44.534;18.700;2023-04-21T13:57:20;9.52;;;3.67;;
25511;SDS011;13414;44.534;18.700;2023-04-21T13:59:49;11.13;;;4.75;;
25511;SDS011;13414;44.534;18.700;2023-04-21T14:02:16;10.20;;;4.38;;
25511;SDS011;13414;44.534;18.700;2023-04-21T14:04:45;11.75;;;4.50;;
25511;SDS011;13414;44.534;18.700;2023-04-21T14:07:13;8.77;;;4.28;;
25511;SDS011;13414;44.534;18.700;2023-04-21T14:09:42;10.65;;;4.13;;
25511;SDS011;13414;44.534;18.700;2023-04-21T14:12:10;10.55;;;4.10;;
25511;SDS011;13414;44.534;18.700;2023-04-21T14:14:39;11.18;;;5.13;;
25511;SDS011;13414;44.534;18.700;2023-04-21T14:17:07;11.45;;;4.13;;
25511;SDS011;13414;44.534;18.700;2023-04-21T14:19:34;14.65;;;6.05;;
25511;SDS011;13414;44.534;18.700;2023-04-21T14:22:01;10.35;;;4.25;;